Time;durP1;ratioP1;P1;durP2;ratioP2;P2;SDS_P1;SDS_P2;PMS_P1;PMS_P2;Temp;Humidity;BMP_temperature;BMP_pressure;BME280_temperature;BME280_humidity;BME280_pressure;Samples;Min_cycle;Max_cycle;Signal;HPM_P1;HPM_P2
2023/07/01 00:01:38;;;;;;;;;;;;;;;24.06;50.67;99630.53;5401583;32;35014;-72
2023/07/01 00:04:43;;;;;;;;;;;;;;;23.64;52.06;99636.81;5404068;32;35566;-70
2023/07/01 00:07:45;;;;;;;;;;;;;;;23.74;51.61;99637.50;5404342;32;35179;-72
2023/07/01 00:10:47;;;;;;;;;;;;;;;23.63;52.12;99639.62;5392411;32;34383;-70
2023/07/01 00:13:50;;;;;;;;;;;;;;;23.49;52.76;99638.38;5394602;32;34250;-70
2023/07/01 00:16:52;;;;;;;;;;;;;;;23.82;52.12;99642.03;5390544;32;34154;-69
2023/07/01 00:19:54;;;;;;;;;;;;;;;23.67;52.64;99636.47;5407640;32;34969;-71
2023/07/01 00:22:56;;;;;;;;;;;;;;;23.66;52.76;99626.75;5405794;32;34692;-72
2023/07/01 00:25:58;;;;;;;;;;;;;;;23.98;51.62;99633.22;5403930;32;34852;-73
2023/07/01 00:29:00;;;;;;;;;;;;;;;23.18;54.05;99630.84;5381718;32;33690;-70
2023/07/01 00:32:02;;;;;;;;;;;;;;;23.74;52.80;99631.28;5402361;32;35442;-73
2023/07/01 00:35:04;;;;;;;;;;;;;;;24.31;51.05;99626.87;5409176;32;33603;-72
2023/07/01 00:38:06;;;;;;;;;;;;;;;23.90;52.22;99633.19;5406958;32;35534;-72
2023/07/01 00:41:07;;;;;;;;;;;;;;;23.44;53.09;99633.50;5405156;32;34854;-71
2023/07/01 00:44:10;;;;;;;;;;;;;;;23.20;54.11;99633.38;5402267;32;34900;-70
2023/07/01 00:47:12;;;;;;;;;;;;;;;23.38;53.68;99633.28;5402455;32;34747;-72
2023/07/01 00:50:13;;;;;;;;;;;;;;;23.48;53.42;99623.28;5406027;32;34674;-70
2023/07/01 00:53:16;;;;;;;;;;;;;;;23.77;52.34;99630.97;5404193;32;34696;-72
2023/07/01 00:56:18;;;;;;;;;;;;;;;23.14;54.28;99628.66;5408030;32;34544;-72
2023/07/01 00:59:19;;;;;;;;;;;;;;;22.82;55.07;99618.53;5404250;32;34893;-71
2023/07/01 01:02:24;;;;;;;;;;;;;;;22.60;55.89;99617.19;5408690;32;34379;-70
2023/07/01 01:05:37;;;;;;;;;;;;;;;23.42;53.59;99611.34;5402885;32;34945;-70
2023/07/01 01:08:40;;;;;;;;;;;;;;;22.85;55.36;99611.00;5378130;32;33891;-71
2023/07/01 01:11:46;;;;;;;;;;;;;;;22.44;56.64;99609.88;5407537;32;35038;-71
2023/07/01 01:14:48;;;;;;;;;;;;;;;23.24;54.20;99606.06;5402425;32;34937;-71
2023/07/01 01:17:51;;;;;;;;;;;;;;;22.82;55.80;99600.62;5406476;32;37038;-71
2023/07/01 01:20:53;;;;;;;;;;;;;;;22.89;55.71;99604.37;5399486;32;35117;-70
2023/07/01 01:24:03;;;;;;;;;;;;;;;22.82;55.75;99595.25;5380374;32;35044;-72
2023/07/01 01:27:05;;;;;;;;;;;;;;;23.21;54.58;99601.03;5393379;32;34989;-70
2023/07/01 01:30:09;;;;;;;;;;;;;;;23.29;54.36;99594.03;5388442;32;35314;-71
2023/07/01 01:33:11;;;;;;;;;;;;;;;22.61;56.70;99584.91;5406393;32;33192;-72
2023/07/01 01:36:16;;;;;;;;;;;;;;;22.47;56.97;99581.94;5401911;32;34368;-71
2023/07/01 01:39:20;;;;;;;;;;;;;;;22.46;57.48;99590.97;5396421;32;36114;-71
2023/07/01 01:42:29;;;;;;;;;;;;;;;22.74;56.37;99595.22;5389814;32;35140;-70
2023/07/01 01:45:31;;;;;;;;;;;;;;;22.94;55.93;99587.84;5384643;32;33641;-72
2023/07/01 01:48:33;;;;;;;;;;;;;;;22.30;57.67;99591.69;5405232;32;34845;-71
2023/07/01 01:51:36;;;;;;;;;;;;;;;22.10;58.85;99591.84;5404121;32;34788;-71
2023/07/01 01:54:38;;;;;;;;;;;;;;;22.24;58.36;99595.81;5394005;32;35521;-71
2023/07/01 01:57:39;;;;;;;;;;;;;;;22.49;57.43;99590.69;5403211;32;35286;-71
2023/07/01 02:00:41;;;;;;;;;;;;;;;22.16;58.30;99590.41;5404519;32;35482;-72
2023/07/01 02:03:45;;;;;;;;;;;;;;;22.01;58.67;99592.72;5403680;32;34693;-72
2023/07/01 02:06:47;;;;;;;;;;;;;;;22.08;58.58;99587.59;5390002;32;35019;-70
2023/07/01 02:09:49;;;;;;;;;;;;;;;21.96;58.91;99588.81;5408391;32;34300;-72
2023/07/01 02:12:51;;;;;;;;;;;;;;;21.79;59.24;99587.81;5402904;32;34366;-71
2023/07/01 02:15:53;;;;;;;;;;;;;;;21.75;59.51;99591.78;5407330;32;35040;-72
2023/07/01 02:18:55;;;;;;;;;;;;;;;22.03;58.57;99592.59;5402780;32;34471;-72
2023/07/01 02:21:56;;;;;;;;;;;;;;;22.22;58.16;99589.78;5394568;32;34315;-74
2023/07/01 02:24:58;;;;;;;;;;;;;;;22.46;57.56;99585.62;5403695;32;34827;-71
2023/07/01 02:28:00;;;;;;;;;;;;;;;23.14;55.25;99591.13;5403922;32;35165;-70
2023/07/01 02:31:03;;;;;;;;;;;;;;;23.36;54.47;99590.56;5407186;32;34504;-71
2023/07/01 02:34:05;;;;;;;;;;;;;;;23.11;54.99;99591.44;5404404;32;34557;-72
2023/07/01 02:37:07;;;;;;;;;;;;;;;22.15;57.83;99596.72;5384984;32;35692;-72
2023/07/01 02:40:09;;;;;;;;;;;;;;;21.59;60.28;99595.13;5400750;32;34256;-71
2023/07/01 02:43:11;;;;;;;;;;;;;;;21.73;59.65;99583.06;5406875;32;34407;-71
2023/07/01 02:46:15;;;;;;;;;;;;;;;21.43;60.71;99594.91;5397782;32;35401;-70
2023/07/01 02:49:17;;;;;;;;;;;;;;;22.29;58.05;99584.66;5378675;32;34945;-71
2023/07/01 02:52:19;;;;;;;;;;;;;;;21.43;60.97;99585.06;5406381;32;36151;-71
2023/07/01 02:55:21;;;;;;;;;;;;;;;22.24;58.29;99576.25;5402864;32;35969;-70
2023/07/01 02:58:23;;;;;;;;;;;;;;;22.22;58.25;99592.47;5406260;32;35029;-71
2023/07/01 03:01:25;;;;;;;;;;;;;;;22.71;56.60;99596.34;5403018;32;34745;-71
2023/07/01 03:04:27;;;;;;;;;;;;;;;22.51;56.88;99599.38;5407964;32;34956;-71
2023/07/01 03:07:29;;;;;;;;;;;;;;;21.90;59.09;99595.63;5403556;32;35098;-72
2023/07/01 03:10:33;;;;;;;;;;;;;;;21.32;61.03;99604.00;5403918;32;35651;-72
2023/07/01 03:13:37;;;;;;;;;;;;;;;21.37;60.58;99599.03;5407729;32;34830;-71
2023/07/01 03:16:42;;;;;;;;;;;;;;;21.66;59.94;99595.38;5402455;32;35059;-70
2023/07/01 03:19:44;;;;;;;;;;;;;;;22.22;58.33;99595.16;5407677;32;35536;-70
2023/07/01 03:22:46;;;;;;;;;;;;;;;22.82;56.06;99599.78;5403279;32;35021;-70
2023/07/01 03:25:48;;;;;;;;;;;;;;;22.46;56.70;99597.16;5389821;32;35503;-71
2023/07/01 03:28:50;;;;;;;;;;;;;;;21.42;59.88;99599.44;5405072;32;34733;-72
2023/07/01 03:31:52;;;;;;;;;;;;;;;21.88;58.62;99592.25;5388184;32;34943;-71
2023/07/01 03:34:55;;;;;;;;;;;;;;;22.54;57.03;99597.25;5407756;32;34951;-70
2023/07/01 03:37:57;;;;;;;;;;;;;;;21.83;58.27;99592.72;5405334;32;35740;-71
2023/07/01 03:40:58;;;;;;;;;;;;;;;21.73;59.42;99583.06;5406828;32;34500;-70
2023/07/01 03:44:00;;;;;;;;;;;;;;;22.10;57.91;99593.69;5400117;32;34998;-71
2023/07/01 03:47:03;;;;;;;;;;;;;;;21.80;59.20;99581.47;5403057;32;35468;-70
2023/07/01 03:50:07;;;;;;;;;;;;;;;21.95;59.34;99589.81;5405217;32;35079;-73
2023/07/01 03:53:09;;;;;;;;;;;;;;;21.75;59.93;99595.28;5405335;32;35542;-71
2023/07/01 03:56:11;;;;;;;;;;;;;;;21.57;60.06;99587.22;5393920;32;34877;-70
2023/07/01 03:59:13;;;;;;;;;;;;;;;22.09;58.53;99595.53;5402303;32;34532;-71
2023/07/01 04:02:15;;;;;;;;;;;;;;;22.22;58.60;99595.16;5409631;32;34939;-72
2023/07/01 04:05:18;;;;;;;;;;;;;;;22.44;57.45;99583.94;5402819;32;35647;-71
2023/07/01 04:08:20;;;;;;;;;;;;;;;22.19;58.14;99584.72;5380818;32;34999;-72
2023/07/01 04:11:23;;;;;;;;;;;;;;;22.25;58.21;99581.44;5392561;32;35186;-71
2023/07/01 04:14:25;;;;;;;;;;;;;;;21.87;59.20;99582.56;5404925;32;34686;-72
2023/07/01 04:17:28;;;;;;;;;;;;;;;23.01;55.25;99575.47;5410928;32;35136;-71
2023/07/01 04:20:30;;;;;;;;;;;;;;;22.27;57.29;99582.13;5404986;32;34865;-70
2023/07/01 04:23:31;;;;;;;;;;;;;;;21.82;58.65;99583.00;5407657;32;34372;-72
2023/07/01 04:26:34;;;;;;;;;;;;;;;22.63;55.69;99576.72;5404415;32;34527;-72
2023/07/01 04:29:36;;;;;;;;;;;;;;;22.91;55.36;99564.03;5404894;32;35176;-71
2023/07/01 04:32:38;;;;;;;;;;;;;;;22.89;54.78;99566.03;5394384;32;34313;-71
2023/07/01 04:35:40;;;;;;;;;;;;;;;23.22;54.18;99567.88;5387026;32;34848;-73
2023/07/01 04:38:42;;;;;;;;;;;;;;;22.79;55.77;99563.41;5408457;32;35691;-71
2023/07/01 04:41:43;;;;;;;;;;;;;;;23.10;54.46;99566.47;5402090;32;34304;-72
2023/07/01 04:44:53;;;;;;;;;;;;;;;23.64;52.87;99560.88;5405433;32;35517;-72
2023/07/01 04:47:55;;;;;;;;;;;;;;;22.80;55.72;99561.56;5402931;32;35274;-71
2023/07/01 04:50:57;;;;;;;;;;;;;;;23.64;53.17;99567.06;5404684;32;34385;-72
2023/07/01 04:54:04;;;;;;;;;;;;;;;23.76;52.34;99563.06;5383470;32;34658;-70
2023/07/01 04:57:06;;;;;;;;;;;;;;;24.52;50.23;99563.81;5405109;32;35288;-72
2023/07/01 05:00:10;;;;;;;;;;;;;;;24.40;48.72;99557.09;5408345;32;35579;-71
2023/07/01 05:03:12;;;;;;;;;;;;;;;25.89;44.41;99548.22;5405252;32;34428;-70
2023/07/01 05:06:15;;;;;;;;;;;;;;;25.10;45.73;99563.53;5406696;32;35522;-72
2023/07/01 05:09:17;;;;;;;;;;;;;;;25.65;44.66;99553.72;5399232;32;34658;-70
2023/07/01 05:12:18;;;;;;;;;;;;;;;25.59;45.06;99565.19;5404708;32;35200;-71
2023/07/01 05:15:20;;;;;;;;;;;;;;;25.66;46.42;99561.59;5410386;32;35392;-71
2023/07/01 05:18:22;;;;;;;;;;;;;;;26.18;45.39;99563.62;5402543;32;35317;-71
2023/07/01 05:21:24;;;;;;;;;;;;;;;25.63;46.71;99571.88;5408109;32;35406;-70
2023/07/01 05:24:26;;;;;;;;;;;;;;;26.65;44.14;99564.44;5404466;32;34877;-71
2023/07/01 05:27:28;;;;;;;;;;;;;;;26.28;44.75;99557.19;5394544;32;35744;-72
2023/07/01 05:30:30;;;;;;;;;;;;;;;26.77;43.64;99559.44;5404440;32;34345;-72
2023/07/01 05:33:32;;;;;;;;;;;;;;;27.40;42.29;99572.41;5404522;32;34916;-73
2023/07/01 05:36:34;;;;;;;;;;;;;;;27.36;41.36;99565.69;5408072;32;35164;-71
2023/07/01 05:39:37;;;;;;;;;;;;;;;28.01;40.12;99572.91;5402120;32;34665;-74
2023/07/01 05:42:39;;;;;;;;;;;;;;;27.68;39.83;99577.09;5404845;32;35090;-71
2023/07/01 05:45:41;;;;;;;;;;;;;;;28.12;39.50;99568.88;5401299;32;34236;-71
2023/07/01 05:48:43;;;;;;;;;;;;;;;27.58;40.34;99573.87;5402028;32;34608;-72
2023/07/01 05:51:45;;;;;;;;;;;;;;;26.78;41.89;99578.12;5402004;32;35102;-71
2023/07/01 05:54:47;;;;;;;;;;;;;;;27.83;40.13;99569.00;5404168;32;34679;-71
2023/07/01 05:57:50;;;;;;;;;;;;;;;28.87;37.83;99567.44;5408708;32;34350;-71
2023/07/01 06:00:52;;;;;;;;;;;;;;;28.84;37.40;99555.12;5403342;32;35429;-73
2023/07/01 06:03:53;;;;;;;;;;;;;;;29.16;37.21;99573.66;5408382;32;35025;-72
2023/07/01 06:06:56;;;;;;;;;;;;;;;27.61;39.20;99562.66;5401094;32;34224;-71
2023/07/01 06:09:57;;;;;;;;;;;;;;;28.32;37.51;99566.37;5408061;32;35166;-73
2023/07/01 06:12:59;;;;;;;;;;;;;;;29.09;36.80;99557.41;5404682;32;35375;-72
2023/07/01 06:16:02;;;;;;;;;;;;;;;29.08;37.19;99571.97;5390715;32;34746;-73
2023/07/01 06:19:04;;;;;;;;;;;;;;;29.75;36.56;99568.53;5408284;32;34439;-73
2023/07/01 06:22:06;;;;;;;;;;;;;;;30.20;35.42;99561.56;5403837;32;34373;-72
2023/07/01 06:25:10;;;;;;;;;;;;;;;27.29;40.38;99569.34;5407743;32;35033;-70
2023/07/01 06:28:12;;;;;;;;;;;;;;;29.45;36.84;99568.00;5404181;32;34916;-70
2023/07/01 06:31:14;;;;;;;;;;;;;;;29.24;37.54;99570.78;5406336;32;34279;-71
2023/07/01 06:34:19;;;;;;;;;;;;;;;29.29;36.08;99573.72;5404777;32;35273;-71
2023/07/01 06:37:21;;;;;;;;;;;;;;;28.55;37.24;99567.00;5404106;32;35012;-71
2023/07/01 06:40:23;;;;;;;;;;;;;;;29.54;35.65;99566.78;5406976;32;34919;-73
2023/07/01 06:43:25;;;;;;;;;;;;;;;30.23;34.25;99554.06;5402367;32;35080;-70
2023/07/01 06:46:27;;;;;;;;;;;;;;;30.84;33.02;99556.56;5404395;32;35351;-73
2023/07/01 06:49:29;;;;;;;;;;;;;;;31.55;32.09;99565.56;5373758;32;34868;-73
2023/07/01 06:52:31;;;;;;;;;;;;;;;30.01;34.23;99565.03;5406572;32;35468;-71
2023/07/01 06:55:33;;;;;;;;;;;;;;;29.45;35.43;99570.69;5403921;32;35361;-70
2023/07/01 06:58:35;;;;;;;;;;;;;;;29.45;35.22;99565.28;5403643;32;35136;-74
2023/07/01 07:01:37;;;;;;;;;;;;;;;31.46;31.89;99550.56;5379454;32;34186;-71
2023/07/01 07:04:39;;;;;;;;;;;;;;;31.73;31.26;99558.56;5403129;32;35188;-73
2023/07/01 07:07:41;;;;;;;;;;;;;;;30.69;32.63;99560.34;5406082;32;34460;-71
2023/07/01 07:10:43;;;;;;;;;;;;;;;31.07;32.11;99551.50;5401379;32;34961;-70
2023/07/01 07:13:45;;;;;;;;;;;;;;;31.85;30.73;99548.72;5379850;32;34990;-73
2023/07/01 07:16:47;;;;;;;;;;;;;;;33.00;28.14;99541.09;5405373;32;34830;-71
2023/07/01 07:19:49;;;;;;;;;;;;;;;32.02;30.92;99546.31;5402608;32;35326;-73
2023/07/01 07:22:51;;;;;;;;;;;;;;;32.37;28.87;99537.72;5407155;32;33399;-73
2023/07/01 07:25:53;;;;;;;;;;;;;;;33.48;27.14;99537.63;5375291;32;867771;-74
2023/07/01 07:28:55;;;;;;;;;;;;;;;35.00;24.75;99528.94;5407383;32;35605;-73
2023/07/01 07:31:57;;;;;;;;;;;;;;;33.84;26.21;99531.25;5402195;32;34824;-73
2023/07/01 07:34:59;;;;;;;;;;;;;;;34.16;26.01;99518.22;5405630;32;34494;-70
2023/07/01 07:38:01;;;;;;;;;;;;;;;32.76;27.79;99523.75;5410134;32;35588;-72
2023/07/01 07:41:03;;;;;;;;;;;;;;;31.99;29.24;99525.00;5402387;32;34965;-72
2023/07/01 07:44:05;;;;;;;;;;;;;;;34.02;26.25;99515.94;5402367;32;34599;-72
2023/07/01 07:47:07;;;;;;;;;;;;;;;33.12;27.14;99522.13;5385535;32;34516;-73
2023/07/01 07:50:09;;;;;;;;;;;;;;;35.14;24.45;99522.16;5404482;32;34655;-73
2023/07/01 07:53:13;;;;;;;;;;;;;;;33.55;25.82;99524.75;5400099;32;33633;-74
2023/07/01 07:56:15;;;;;;;;;;;;;;;35.11;24.21;99503.53;5402996;32;35181;-72
2023/07/01 07:59:17;;;;;;;;;;;;;;;35.42;23.96;99512.34;5403453;32;33560;-73
2023/07/01 08:02:19;;;;;;;;;;;;;;;34.02;26.00;99510.50;5401847;32;34664;-71
2023/07/01 08:05:23;;;;;;;;;;;;;;;35.78;23.15;99502.94;5404878;32;34479;-73
2023/07/01 08:08:26;;;;;;;;;;;;;;;34.64;24.81;99498.09;5403017;32;33821;-71
2023/07/01 08:11:27;;;;;;;;;;;;;;;35.29;23.94;99488.84;5405323;32;34576;-73
2023/07/01 08:14:30;;;;;;;;;;;;;;;36.46;22.51;99485.53;5401591;32;35068;-71
2023/07/01 08:17:32;;;;;;;;;;;;;;;35.87;23.32;99489.69;5405773;32;35034;-72
2023/07/01 08:20:34;;;;;;;;;;;;;;;37.06;22.38;99484.72;5402508;32;35580;-71
2023/07/01 08:23:36;;;;;;;;;;;;;;;36.18;23.06;99471.91;5402269;32;34691;-71
2023/07/01 08:26:38;;;;;;;;;;;;;;;37.03;21.92;99482.47;5405651;32;34754;-72
2023/07/01 08:29:40;;;;;;;;;;;;;;;35.65;23.03;99481.38;5402248;32;35187;-73
2023/07/01 08:32:42;;;;;;;;;;;;;;;35.18;24.28;99481.53;5406699;32;35868;-70
2023/07/01 08:35:44;;;;;;;;;;;;;;;34.83;24.85;99474.22;5402182;32;36080;-71
2023/07/01 08:38:46;;;;;;;;;;;;;;;35.91;23.54;99478.03;5404542;32;35539;-70
2023/07/01 08:41:52;;;;;;;;;;;;;;;35.58;24.38;99470.59;5406815;32;35380;-73
2023/07/01 08:44:53;;;;;;;;;;;;;;;36.50;22.52;99469.41;5401915;32;35446;-71
2023/07/01 08:47:57;;;;;;;;;;;;;;;36.12;22.87;99464.69;5406942;32;35333;-70
2023/07/01 08:51:07;;;;;;;;;;;;;;;36.73;22.03;99468.37;5401085;32;34508;-73
2023/07/01 08:54:09;;;;;;;;;;;;;;;37.28;21.44;99462.78;5406132;32;34232;-74
2023/07/01 08:57:11;;;;;;;;;;;;;;;37.33;21.32;99453.81;5390085;32;34984;-71
2023/07/01 09:00:13;;;;;;;;;;;;;;;36.78;22.16;99458.34;5404396;32;34970;-73
2023/07/01 09:03:15;;;;;;;;;;;;;;;37.46;21.47;99463.56;5408680;32;35089;-71
2023/07/01 09:06:17;;;;;;;;;;;;;;;37.17;21.79;99463.78;5401151;32;34129;-72
2023/07/01 09:09:19;;;;;;;;;;;;;;;37.11;21.99;99462.88;5408441;32;34184;-71
2023/07/01 09:12:25;;;;;;;;;;;;;;;36.59;22.37;99460.53;5390110;32;35004;-71
2023/07/01 09:15:27;;;;;;;;;;;;;;;37.01;21.28;99459.19;5394797;32;34789;-71
2023/07/01 09:18:29;;;;;;;;;;;;;;;37.86;20.58;99452.19;5402553;32;36499;-71
2023/07/01 09:21:32;;;;;;;;;;;;;;;37.33;21.19;99460.13;5403896;32;34708;-71
2023/07/01 09:24:40;;;;;;;;;;;;;;;37.03;21.71;99452.34;5407934;32;34562;-72
2023/07/01 09:27:46;;;;;;;;;;;;;;;34.24;25.05;99451.59;5405545;32;34911;-71
2023/07/01 09:30:48;;;;;;;;;;;;;;;35.72;23.37;99444.63;5405433;32;35030;-73
2023/07/01 09:33:58;;;;;;;;;;;;;;;37.76;20.83;99449.34;5402044;32;35066;-71
2023/07/01 09:37:14;;;;;;;;;;;;;;;36.60;22.19;99445.78;5410655;32;35042;-73
2023/07/01 09:40:21;;;;;;;;;;;;;;;36.63;22.11;99440.88;5406346;32;34113;-71
2023/07/01 09:43:33;;;;;;;;;;;;;;;36.33;22.55;99442.91;5395987;32;35048;-71
2023/07/01 09:46:42;;;;;;;;;;;;;;;36.07;22.95;99429.94;5404224;32;35530;-73
2023/07/01 09:49:45;;;;;;;;;;;;;;;37.52;21.04;99432.38;5389972;32;34363;-71
2023/07/01 09:52:48;;;;;;;;;;;;;;;37.07;21.71;99434.34;5407846;32;34890;-73
2023/07/01 09:55:50;;;;;;;;;;;;;;;35.73;23.33;99434.50;5402540;32;34996;-74
2023/07/01 09:58:53;;;;;;;;;;;;;;;35.10;24.39;99430.88;5403635;32;34831;-70
2023/07/01 10:01:55;;;;;;;;;;;;;;;36.84;22.16;99427.22;5381264;32;35189;-73
2023/07/01 10:04:59;;;;;;;;;;;;;;;36.96;21.70;99426.25;5400228;32;35014;-73
2023/07/01 10:08:01;;;;;;;;;;;;;;;35.61;23.44;99428.28;5381778;32;34938;-73
2023/07/01 10:11:03;;;;;;;;;;;;;;;36.17;22.99;99421.03;5400390;32;34641;-73
2023/07/01 10:14:05;;;;;;;;;;;;;;;36.64;22.65;99417.88;5405922;32;34803;-73
2023/07/01 10:17:07;;;;;;;;;;;;;;;36.34;23.15;99414.47;5403004;32;35108;-70
2023/07/01 10:20:25;;;;;;;;;;;;;;;36.52;22.73;99418.03;5403576;32;35293;-72
2023/07/01 10:23:42;;;;;;;;;;;;;;;35.29;24.21;99420.56;5408247;32;35849;-72
2023/07/01 10:26:47;;;;;;;;;;;;;;;33.85;26.39;99406.72;5402544;32;36587;-71
2023/07/01 10:29:53;;;;;;;;;;;;;;;35.23;25.18;99408.75;5407094;32;34797;-71
2023/07/01 10:32:55;;;;;;;;;;;;;;;37.12;21.90;99412.50;5392408;32;34282;-73
2023/07/01 10:36:00;;;;;;;;;;;;;;;35.04;25.05;99406.44;5402342;32;35308;-70
2023/07/01 10:39:22;;;;;;;;;;;;;;;36.15;23.56;99395.84;5409399;32;34733;-73
2023/07/01 10:42:34;;;;;;;;;;;;;;;36.74;22.72;99399.69;5394543;32;34688;-72
2023/07/01 10:45:36;;;;;;;;;;;;;;;36.80;22.57;99406.06;5405085;32;35586;-73
2023/07/01 10:48:42;;;;;;;;;;;;;;;35.38;24.34;99405.47;5403098;32;34682;-73
2023/07/01 10:51:44;;;;;;;;;;;;;;;34.69;25.15;99415.53;5400793;32;34269;-72
2023/07/01 10:54:46;;;;;;;;;;;;;;;34.36;26.01;99414.25;5408009;32;34235;-73
2023/07/01 10:58:23;;;;;;;;;;;;;;;34.07;26.39;99405.13;5402455;32;35633;-72
2023/07/01 11:01:41;;;;;;;;;;;;;;;35.35;24.71;99405.09;5392061;32;34313;-74
2023/07/01 11:04:52;;;;;;;;;;;;;;;35.72;23.77;99400.06;5391051;32;35214;-71
2023/07/01 11:07:55;;;;;;;;;;;;;;;33.73;26.57;99406.69;5403629;32;34660;-72
2023/07/01 11:10:57;;;;;;;;;;;;;;;35.64;24.18;99411.41;5402892;32;35679;-71
2023/07/01 11:14:01;;;;;;;;;;;;;;;35.92;23.48;99410.53;5389675;32;35502;-73
2023/07/01 11:17:21;;;;;;;;;;;;;;;37.17;22.57;99409.00;5408856;32;35801;-71
2023/07/01 11:20:23;;;;;;;;;;;;;;;36.82;23.73;99409.34;5388059;32;35026;-71
2023/07/01 11:23:25;;;;;;;;;;;;;;;34.96;26.38;99407.63;5388308;32;35213;-73
2023/07/01 11:26:29;;;;;;;;;;;;;;;35.64;25.58;99405.94;5403645;32;35588;-71
2023/07/01 11:29:31;;;;;;;;;;;;;;;34.39;26.86;99416.50;5386349;32;34856;-72
2023/07/01 11:32:33;;;;;;;;;;;;;;;33.89;27.46;99410.66;5407192;32;36099;-69
2023/07/01 11:35:47;;;;;;;;;;;;;;;33.23;28.34;99407.00;5402256;32;34890;-73
2023/07/01 11:38:49;;;;;;;;;;;;;;;33.76;27.78;99400.81;5407982;32;34762;-71
2023/07/01 11:41:52;;;;;;;;;;;;;;;34.58;26.39;99391.81;5404004;32;35418;-71
2023/07/01 11:44:54;;;;;;;;;;;;;;;35.28;24.97;99394.34;5397574;32;34075;-73
2023/07/01 11:47:56;;;;;;;;;;;;;;;34.56;25.39;99393.97;5401033;32;35429;-70
2023/07/01 11:50:58;;;;;;;;;;;;;;;34.13;26.31;99384.25;5402192;32;36647;-75
2023/07/01 11:54:01;;;;;;;;;;;;;;;35.92;24.08;99381.28;5378542;32;34443;-71
2023/07/01 11:57:21;;;;;;;;;;;;;;;35.46;24.12;99385.97;5402173;32;35493;-71
2023/07/01 12:00:29;;;;;;;;;;;;;;;35.45;23.38;99376.09;5401363;32;34818;-72
2023/07/01 12:03:35;;;;;;;;;;;;;;;35.59;24.44;99381.25;5406763;32;36147;-72
2023/07/01 12:06:37;;;;;;;;;;;;;;;35.67;24.24;99372.62;5388962;32;34930;-72
2023/07/01 12:09:40;;;;;;;;;;;;;;;34.50;26.06;99381.28;5405629;32;34061;-70
2023/07/01 12:12:43;;;;;;;;;;;;;;;34.51;25.92;99383.75;5401463;32;34283;-72
2023/07/01 12:15:51;;;;;;;;;;;;;;;33.83;26.62;99366.09;5409797;32;34265;-71
2023/07/01 12:19:01;;;;;;;;;;;;;;;32.44;28.03;99365.28;5403358;32;34680;-69
2023/07/01 12:22:05;;;;;;;;;;;;;;;32.79;27.84;99370.94;5404486;32;34355;-72
2023/07/01 12:25:07;;;;;;;;;;;;;;;33.14;27.91;99356.69;5408629;32;36293;-70
2023/07/01 12:28:09;;;;;;;;;;;;;;;33.78;26.93;99355.06;5405633;32;35263;-72
2023/07/01 12:31:12;;;;;;;;;;;;;;;33.02;26.69;99343.00;5408022;32;34895;-72
2023/07/01 12:34:14;;;;;;;;;;;;;;;32.69;27.71;99354.31;5404752;32;35672;-74
2023/07/01 12:37:16;;;;;;;;;;;;;;;32.63;27.71;99354.41;5408227;32;35492;-70
2023/07/01 12:40:18;;;;;;;;;;;;;;;32.41;28.27;99341.28;5407168;32;35473;-70
2023/07/01 12:43:27;;;;;;;;;;;;;;;33.27;26.23;99340.13;5403757;32;34461;-71
2023/07/01 12:46:29;;;;;;;;;;;;;;;32.58;26.75;99344.19;5391451;32;34376;-72
2023/07/01 12:49:32;;;;;;;;;;;;;;;32.29;27.28;99333.00;5403073;32;35131;-70
2023/07/01 12:52:34;;;;;;;;;;;;;;;32.38;26.30;99330.00;5409039;32;34620;-72
2023/07/01 12:55:36;;;;;;;;;;;;;;;32.04;27.20;99318.66;5403769;32;34720;-72
2023/07/01 12:58:39;;;;;;;;;;;;;;;32.73;26.47;99312.00;5404991;32;35565;-73
2023/07/01 13:01:45;;;;;;;;;;;;;;;33.51;25.09;99311.09;5405817;32;35411;-70
2023/07/01 13:05:01;;;;;;;;;;;;;;;32.26;27.18;99308.16;5402001;32;34478;-71
2023/07/01 13:08:04;;;;;;;;;;;;;;;33.05;25.85;99311.81;5409200;32;34453;-71
2023/07/01 13:11:06;;;;;;;;;;;;;;;32.69;26.35;99299.91;5402647;32;34952;-74
2023/07/01 13:14:12;;;;;;;;;;;;;;;32.98;25.46;99305.63;5407106;32;34256;-73
2023/07/01 13:17:14;;;;;;;;;;;;;;;32.74;25.64;99305.50;5392505;32;34989;-71
2023/07/01 13:20:16;;;;;;;;;;;;;;;32.80;25.42;99298.31;5403598;32;35409;-73
2023/07/01 13:23:18;;;;;;;;;;;;;;;32.53;25.77;99295.13;5400804;32;34990;-73
2023/07/01 13:26:38;;;;;;;;;;;;;;;32.71;25.58;99292.34;5403599;32;35463;-71
2023/07/01 13:29:40;;;;;;;;;;;;;;;32.25;26.73;99296.44;5406044;32;35218;-73
2023/07/01 13:32:42;;;;;;;;;;;;;;;32.29;26.87;99300.37;5402258;32;34672;-73
2023/07/01 13:35:44;;;;;;;;;;;;;;;33.27;25.70;99291.13;5405800;32;35013;-73
2023/07/01 13:38:48;;;;;;;;;;;;;;;31.86;27.81;99300.44;5410989;32;34794;-71
2023/07/01 13:41:50;;;;;;;;;;;;;;;31.53;28.32;99301.53;5403293;32;34243;-71
2023/07/01 13:44:53;;;;;;;;;;;;;;;31.84;27.64;99297.13;5399769;32;35382;-72
2023/07/01 13:47:55;;;;;;;;;;;;;;;32.02;26.75;99304.47;5402375;32;33974;-72
2023/07/01 13:50:58;;;;;;;;;;;;;;;32.10;26.72;99287.84;5407813;32;35578;-72
2023/07/01 13:54:01;;;;;;;;;;;;;;;32.71;25.50;99296.94;5403969;32;34487;-71
2023/07/01 13:57:03;;;;;;;;;;;;;;;31.71;27.28;99303.47;5403025;32;34456;-70
2023/07/01 14:00:08;;;;;;;;;;;;;;;32.70;26.17;99293.41;5403613;32;35117;-73
2023/07/01 14:03:13;;;;;;;;;;;;;;;32.04;26.76;99296.91;5389819;32;35318;-72
2023/07/01 14:06:16;;;;;;;;;;;;;;;32.53;26.95;99278.81;5407965;32;35861;-70
2023/07/01 14:09:28;;;;;;;;;;;;;;;32.36;27.57;99286.75;5389803;32;33844;-73
2023/07/01 14:12:30;;;;;;;;;;;;;;;32.32;27.06;99289.03;5391703;32;35018;-71
2023/07/01 14:15:42;;;;;;;;;;;;;;;32.37;27.59;99293.84;5407973;32;34575;-74
2023/07/01 14:18:45;;;;;;;;;;;;;;;31.74;28.77;99296.75;5404129;32;34706;-70
2023/07/01 14:21:52;;;;;;;;;;;;;;;31.45;29.59;99296.41;5381374;32;34376;-70
2023/07/01 14:24:55;;;;;;;;;;;;;;;31.45;29.47;99296.41;5388970;32;35268;-70
2023/07/01 14:27:57;;;;;;;;;;;;;;;31.54;30.01;99286.06;5407943;32;34759;-70
2023/07/01 14:31:08;;;;;;;;;;;;;;;30.73;31.84;99284.16;5389072;32;35111;-71
2023/07/01 14:34:11;;;;;;;;;;;;;;;31.35;31.17;99278.94;5403314;32;35112;-70
2023/07/01 14:37:13;;;;;;;;;;;;;;;31.02;32.01;99285.41;5410809;32;34834;-72
2023/07/01 14:40:15;;;;;;;;;;;;;;;30.91;32.18;99276.06;5401062;32;35349;-70
2023/07/01 14:43:17;;;;;;;;;;;;;;;30.51;32.88;99275.44;5390143;32;35122;-73
2023/07/01 14:46:19;;;;;;;;;;;;;;;30.86;32.81;99267.78;5386382;32;34156;-70
2023/07/01 14:49:21;;;;;;;;;;;;;;;30.47;33.51;99274.22;5393720;32;35025;-71
2023/07/01 14:52:23;;;;;;;;;;;;;;;31.42;32.15;99271.56;5389797;32;35302;-70
2023/07/01 14:55:26;;;;;;;;;;;;;;;31.91;30.98;99270.72;5403471;32;34977;-72
2023/07/01 14:58:28;;;;;;;;;;;;;;;31.78;31.26;99273.53;5405575;32;35441;-71
2023/07/01 15:01:30;;;;;;;;;;;;;;;31.88;31.13;99264.88;5402921;32;34324;-72
2023/07/01 15:04:32;;;;;;;;;;;;;;;30.99;32.72;99275.00;5392805;32;35459;-73
2023/07/01 15:07:35;;;;;;;;;;;;;;;30.59;33.42;99266.22;5377397;32;35212;-73
2023/07/01 15:10:37;;;;;;;;;;;;;;;31.32;32.32;99266.66;5400406;32;34920;-71
2023/07/01 15:13:39;;;;;;;;;;;;;;;30.64;33.54;99269.94;5403483;32;34797;-73
2023/07/01 15:16:41;;;;;;;;;;;;;;;30.58;33.37;99273.53;5390812;32;34391;-72
2023/07/01 15:19:43;;;;;;;;;;;;;;;30.70;33.10;99268.28;5407131;32;34715;-71
2023/07/01 15:22:45;;;;;;;;;;;;;;;30.13;33.93;99264.53;5403924;32;34436;-71
2023/07/01 15:25:47;;;;;;;;;;;;;;;30.44;33.12;99256.50;5406379;32;33830;-71
2023/07/01 15:28:50;;;;;;;;;;;;;;;30.72;32.38;99250.78;5402877;32;34387;-72
2023/07/01 15:31:52;;;;;;;;;;;;;;;30.00;33.31;99261.84;5407191;32;34704;-72
2023/07/01 15:34:54;;;;;;;;;;;;;;;30.69;31.69;99253.91;5403311;32;35588;-72
2023/07/01 15:37:56;;;;;;;;;;;;;;;30.45;32.01;99258.16;5407232;32;34929;-72
2023/07/01 15:40:58;;;;;;;;;;;;;;;30.48;32.01;99257.75;5406541;32;34718;-70
2023/07/01 15:44:00;;;;;;;;;;;;;;;30.88;31.31;99249.41;5387332;32;35386;-72
2023/07/01 15:47:03;;;;;;;;;;;;;;;30.89;31.06;99252.94;5406486;32;34217;-70
2023/07/01 15:50:05;;;;;;;;;;;;;;;30.82;31.16;99249.44;5405038;32;34416;-70
2023/07/01 15:53:07;;;;;;;;;;;;;;;30.82;31.14;99249.44;5408484;32;34832;-71
2023/07/01 15:56:09;;;;;;;;;;;;;;;30.74;31.31;99250.53;5405446;32;34684;-70